createdAt,value
2023-12-14T00:05:20.470Z,8.23
2023-12-14T00:10:43.072Z,7.30
2023-12-14T00:16:05.890Z,7.63
2023-12-14T00:21:28.581Z,8.70
2023-12-14T00:26:51.028Z,7.80
2023-12-14T00:32:13.477Z,8.30
2023-12-14T00:37:36.100Z,8.47
2023-12-14T00:42:58.383Z,7.97
2023-12-14T00:48:20.764Z,8.23
2023-12-14T00:53:43.195Z,7.47
2023-12-14T00:59:05.672Z,7.27
2023-12-14T01:04:28.115Z,7.33
2023-12-14T01:09:50.522Z,6.93
2023-12-14T01:15:13.138Z,7.83
2023-12-14T01:20:35.506Z,7.50
2023-12-14T01:25:57.989Z,7.00
2023-12-14T01:31:22.088Z,6.50
2023-12-14T01:36:44.749Z,6.57
2023-12-14T01:42:06.886Z,6.53
2023-12-14T01:47:29.044Z,5.97
2023-12-14T01:52:51.603Z,6.53
2023-12-14T01:58:14.556Z,5.80
2023-12-14T02:03:37.131Z,6.73
2023-12-14T02:08:59.773Z,6.17
2023-12-14T02:14:24.171Z,5.97
2023-12-14T02:19:46.963Z,6.30
2023-12-14T02:25:09.566Z,6.73
2023-12-14T02:30:31.891Z,6.03
2023-12-14T02:35:54.560Z,6.27
2023-12-14T02:41:16.875Z,5.93
2023-12-14T02:46:39.382Z,5.73
2023-12-14T02:52:02.665Z,5.63
2023-12-14T02:57:25.321Z,6.13
2023-12-14T03:02:47.699Z,6.17
2023-12-14T03:08:10.354Z,5.80
2023-12-14T03:13:32.489Z,6.93
2023-12-14T03:18:55.149Z,5.70
2023-12-14T03:24:17.964Z,5.90
2023-12-14T03:29:40.392Z,5.83
2023-12-14T03:35:03.148Z,6.00
2023-12-14T03:40:25.729Z,5.90
2023-12-14T03:45:48.257Z,5.70
2023-12-14T03:51:10.782Z,5.53
2023-12-14T03:56:33.130Z,6.00
2023-12-14T04:01:55.713Z,5.50
2023-12-14T04:07:18.338Z,5.20
2023-12-14T04:12:41.367Z,5.60
2023-12-14T04:18:03.997Z,5.33
2023-12-14T04:23:28.097Z,4.80
2023-12-14T04:28:51.702Z,5.07
2023-12-14T04:34:16.846Z,5.03
2023-12-14T04:39:39.234Z,4.83
2023-12-14T04:45:03.428Z,5.13
2023-12-14T04:50:25.955Z,4.77
2023-12-14T04:55:48.549Z,5.40
2023-12-14T05:01:10.976Z,5.03
2023-12-14T05:06:34.886Z,5.07
2023-12-14T05:11:59.787Z,4.97
2023-12-14T05:17:23.144Z,4.33
2023-12-14T05:22:45.679Z,5.00
2023-12-14T05:28:08.299Z,4.93
2023-12-14T05:33:32.409Z,5.47
2023-12-14T05:38:55.239Z,5.13
2023-12-14T05:44:17.517Z,4.87
2023-12-14T05:49:44.180Z,4.37
2023-12-14T05:55:09.786Z,5.10
2023-12-14T06:00:32.962Z,5.07
2023-12-14T06:05:55.269Z,4.40
2023-12-14T06:11:17.824Z,4.33
2023-12-14T06:16:40.021Z,4.77
2023-12-14T06:22:02.703Z,5.33
2023-12-14T06:27:27.581Z,5.47
2023-12-14T06:32:50.279Z,5.83
2023-12-14T06:38:12.957Z,5.47
2023-12-14T06:43:35.276Z,7.00
2023-12-14T06:48:58.056Z,6.30
2023-12-14T06:54:20.555Z,6.40
2023-12-14T06:59:42.742Z,6.33
2023-12-14T07:05:05.958Z,7.37
2023-12-14T07:10:28.205Z,6.50
2023-12-14T07:15:50.728Z,7.10
2023-12-14T07:21:13.265Z,6.67
2023-12-14T07:26:35.706Z,7.50
2023-12-14T07:31:58.454Z,7.83
2023-12-14T07:37:20.958Z,7.83
2023-12-14T07:42:45.847Z,7.93
2023-12-14T07:48:08.222Z,7.80
2023-12-14T07:53:30.753Z,8.13
2023-12-14T07:58:53.369Z,8.10
2023-12-14T08:04:16.008Z,8.00
2023-12-14T08:09:38.314Z,7.30
2023-12-14T08:15:00.775Z,7.70
2023-12-14T08:20:23.837Z,7.57
2023-12-14T08:25:46.564Z,7.23
2023-12-14T08:31:10.997Z,7.53
2023-12-14T08:36:33.362Z,7.60
2023-12-14T08:41:55.773Z,7.50
2023-12-14T08:47:18.189Z,7.53
2023-12-14T08:52:40.785Z,6.93
2023-12-14T08:58:03.564Z,8.07
2023-12-14T09:03:27.689Z,6.93
2023-12-14T09:08:50.482Z,7.27
2023-12-14T09:14:15.152Z,7.80
2023-12-14T09:19:37.554Z,8.53
2023-12-14T09:24:59.930Z,7.10
2023-12-14T09:30:22.986Z,6.83
2023-12-14T09:35:45.449Z,7.10
2023-12-14T09:41:08.630Z,8.43
2023-12-14T09:46:33.280Z,8.13
2023-12-14T09:51:55.493Z,8.83
2023-12-14T09:57:20.109Z,8.57
2023-12-14T10:02:42.715Z,8.73
2023-12-14T10:08:07.154Z,8.30
2023-12-14T10:13:47.853Z,8.93
2023-12-14T10:19:10.721Z,8.63
2023-12-14T10:24:43.604Z,10.20
2023-12-14T10:30:08.194Z,9.20
2023-12-14T10:35:30.652Z,8.70
2023-12-14T10:40:54.355Z,9.33
2023-12-14T10:46:17.444Z,8.33
2023-12-14T10:51:45.277Z,8.83
2023-12-14T10:57:09.954Z,8.77
2023-12-14T11:02:40.490Z,9.30
2023-12-14T11:08:13.523Z,9.07
2023-12-14T11:13:37.241Z,7.60
2023-12-14T11:19:34.922Z,8.73
2023-12-14T11:24:57.425Z,7.83
2023-12-14T11:30:20.472Z,8.93
2023-12-14T11:35:43.638Z,9.20
2023-12-14T11:41:06.614Z,8.83
2023-12-14T11:46:30.409Z,8.17
2023-12-14T11:51:56.901Z,8.27
2023-12-14T11:57:19.563Z,7.87
2023-12-14T12:02:41.956Z,7.20
2023-12-14T12:08:05.047Z,7.80
2023-12-14T12:13:27.725Z,7.10
2023-12-14T12:18:53.677Z,7.70
2023-12-14T12:24:26.192Z,7.93
2023-12-14T12:29:51.607Z,7.27
2023-12-14T12:35:14.712Z,8.17
2023-12-14T12:40:37.376Z,7.37
2023-12-14T12:45:59.898Z,7.13
2023-12-14T12:51:22.871Z,7.60
2023-12-14T12:56:45.520Z,7.90
2023-12-14T13:02:08.140Z,6.90
2023-12-14T13:07:30.504Z,7.80
2023-12-14T13:12:53.042Z,7.53
2023-12-14T13:18:17.844Z,8.00
2023-12-14T13:23:40.737Z,7.80
2023-12-14T13:29:04.274Z,8.13
2023-12-14T13:34:29.029Z,6.67
2023-12-14T13:39:51.481Z,6.83
2023-12-14T13:45:14.011Z,7.53
2023-12-14T13:50:37.303Z,8.30
2023-12-14T13:55:59.898Z,7.60
2023-12-14T14:01:22.880Z,7.60
2023-12-14T14:06:45.462Z,7.07
2023-12-14T14:12:08.449Z,8.27
2023-12-14T14:17:31.120Z,8.20
2023-12-14T14:22:53.569Z,7.20
2023-12-14T14:28:15.964Z,7.50
2023-12-14T14:33:38.501Z,6.60
2023-12-14T14:39:00.993Z,7.77
2023-12-14T14:44:24.330Z,7.17
2023-12-14T14:49:50.016Z,7.10
2023-12-14T14:55:12.719Z,6.87
2023-12-14T15:00:39.881Z,7.63
2023-12-14T15:06:02.780Z,7.27
2023-12-14T15:11:25.063Z,7.90
2023-12-14T15:16:47.979Z,6.67
2023-12-14T15:22:10.627Z,6.67
2023-12-14T15:27:34.135Z,7.30
2023-12-14T15:32:57.178Z,7.70
2023-12-14T15:38:19.772Z,6.73
2023-12-14T15:43:42.766Z,6.53
2023-12-14T15:49:05.479Z,7.63
2023-12-14T15:54:28.163Z,6.90
2023-12-14T15:59:52.343Z,6.60
2023-12-14T16:05:15.773Z,8.40
2023-12-14T16:10:42.695Z,7.43
2023-12-14T16:16:05.691Z,8.67
2023-12-14T16:21:28.444Z,9.50
2023-12-14T16:26:58.593Z,8.53
2023-12-14T16:32:22.837Z,7.60
2023-12-14T16:37:45.632Z,7.70
2023-12-14T16:43:08.276Z,7.77
2023-12-14T16:48:31.009Z,8.57
2023-12-14T16:53:53.697Z,7.97
2023-12-14T16:59:16.348Z,8.23
2023-12-14T17:04:38.629Z,9.17
2023-12-14T17:10:01.133Z,8.47
2023-12-14T17:15:23.582Z,6.97
2023-12-14T17:20:45.795Z,6.90
2023-12-14T17:26:08.390Z,6.30
2023-12-14T17:31:30.665Z,6.40
2023-12-14T17:36:53.332Z,6.70
2023-12-14T17:42:19.506Z,7.40
2023-12-14T17:47:42.591Z,8.07
2023-12-14T17:53:04.964Z,7.00
2023-12-14T17:58:27.607Z,6.67
2023-12-14T18:03:49.854Z,7.03
2023-12-14T18:09:12.535Z,10.43
2023-12-14T18:14:34.855Z,10.40
2023-12-14T18:19:57.243Z,8.20
2023-12-14T18:25:23.435Z,8.60
2023-12-14T18:30:45.984Z,8.60
2023-12-14T18:36:08.978Z,8.80
2023-12-14T18:41:31.591Z,9.87
2023-12-14T18:46:54.150Z,8.97
2023-12-14T18:52:16.680Z,8.33
2023-12-14T18:57:40.179Z,9.27
2023-12-14T19:03:06.083Z,10.17
2023-12-14T19:08:29.185Z,10.20
2023-12-14T19:13:52.698Z,9.23
2023-12-14T19:19:15.419Z,8.77
2023-12-14T19:24:39.535Z,7.23
2023-12-14T19:30:06.674Z,8.07
2023-12-14T19:35:30.104Z,7.10
2023-12-14T19:40:52.429Z,8.60
2023-12-14T19:46:16.221Z,8.00
2023-12-14T19:51:39.932Z,8.77
2023-12-14T19:57:02.748Z,8.60
2023-12-14T20:02:25.201Z,9.23
2023-12-14T20:07:47.869Z,8.47
2023-12-14T20:13:10.858Z,8.63
2023-12-14T20:18:33.190Z,8.47
2023-12-14T20:23:55.365Z,8.20
2023-12-14T20:29:18.008Z,7.93
2023-12-14T20:34:40.870Z,7.93
2023-12-14T20:40:23.589Z,7.10
2023-12-14T20:45:45.687Z,8.07
2023-12-14T20:51:08.336Z,8.90
2023-12-14T20:56:30.654Z,23.10
2023-12-14T21:01:52.835Z,19.87
2023-12-14T21:07:16.850Z,9.60
2023-12-14T21:12:39.149Z,8.20
2023-12-14T21:18:02.874Z,7.63
2023-12-14T21:23:25.187Z,9.53
2023-12-14T21:28:47.734Z,9.60
2023-12-14T21:34:10.184Z,8.37
2023-12-14T21:39:32.803Z,8.60
2023-12-14T21:44:54.940Z,11.27
2023-12-14T21:50:17.339Z,11.97
2023-12-14T21:55:39.833Z,9.27
2023-12-14T22:01:03.115Z,7.90
2023-12-14T22:06:25.575Z,7.00
2023-12-14T22:11:48.017Z,8.07
2023-12-14T22:17:11.002Z,7.73
2023-12-14T22:22:33.500Z,7.73
2023-12-14T22:27:55.821Z,7.90
2023-12-14T22:33:18.464Z,7.63
2023-12-14T22:38:41.148Z,9.17
2023-12-14T22:44:03.323Z,8.83
2023-12-14T22:49:25.950Z,9.17
2023-12-14T22:54:48.188Z,8.70
2023-12-14T23:00:13.432Z,8.77
2023-12-14T23:05:35.887Z,9.00
2023-12-14T23:10:58.387Z,6.93
2023-12-14T23:16:21.522Z,7.67
2023-12-14T23:21:44.041Z,7.37
2023-12-14T23:27:06.415Z,7.13
2023-12-14T23:32:28.669Z,7.27
2023-12-14T23:37:53.208Z,8.80
2023-12-14T23:43:15.644Z,8.07
2023-12-14T23:48:38.090Z,8.10
2023-12-14T23:54:00.401Z,7.90
2023-12-14T23:59:23.459Z,7.40
